sensor_id;sensor_type;location;lat;lon;timestamp;P1;P2;P0
77320;PMS7003;66382;52.252;8.780;2023-03-20T00:00:44;26.75;26.75;17.50
77320;PMS7003;66382;52.252;8.780;2023-03-20T00:03:12;30.75;30.50;18.00
77320;PMS7003;66382;52.252;8.780;2023-03-20T00:05:38;27.50;27.50;18.00
77320;PMS7003;66382;52.252;8.780;2023-03-20T00:08:06;29.75;28.25;17.25
77320;PMS7003;66382;52.252;8.780;2023-03-20T00:10:33;25.50;25.50;15.50
77320;PMS7003;66382;52.252;8.780;2023-03-20T00:13:02;26.50;25.50;15.00
77320;PMS7003;66382;52.252;8.780;2023-03-20T00:15:30;28.50;28.25;16.75
77320;PMS7003;66382;52.252;8.780;2023-03-20T00:17:59;28.50;28.50;17.75
77320;PMS7003;66382;52.252;8.780;2023-03-20T00:20:25;30.50;29.50;19.25
77320;PMS7003;66382;52.252;8.780;2023-03-20T00:22:51;27.50;27.50;17.25
77320;PMS7003;66382;52.252;8.780;2023-03-20T00:25:19;24.25;24.25;15.00
77320;PMS7003;66382;52.252;8.780;2023-03-20T00:27:46;26.00;25.00;15.75
77320;PMS7003;66382;52.252;8.780;2023-03-20T00:30:19;25.75;25.25;17.25
77320;PMS7003;66382;52.252;8.780;2023-03-20T00:32:48;26.25;25.75;15.75
77320;PMS7003;66382;52.252;8.780;2023-03-20T00:35:19;26.25;26.00;14.00
77320;PMS7003;66382;52.252;8.780;2023-03-20T00:37:47;26.75;26.75;18.00
77320;PMS7003;66382;52.252;8.780;2023-03-20T00:40:13;22.25;22.25;16.50
77320;PMS7003;66382;52.252;8.780;2023-03-20T00:42:41;24.50;24.50;15.25
77320;PMS7003;66382;52.252;8.780;2023-03-20T00:45:09;29.50;28.25;18.50
77320;PMS7003;66382;52.252;8.780;2023-03-20T00:47:39;28.25;28.00;19.75
77320;PMS7003;66382;52.252;8.780;2023-03-20T00:50:06;24.75;24.75;16.00
77320;PMS7003;66382;52.252;8.780;2023-03-20T00:52:38;30.50;29.75;18.75
77320;PMS7003;66382;52.252;8.780;2023-03-20T00:55:04;26.75;26.75;15.50
77320;PMS7003;66382;52.252;8.780;2023-03-20T00:57:31;26.75;26.00;18.00
77320;PMS7003;66382;52.252;8.780;2023-03-20T01:00:04;29.00;28.25;16.00
77320;PMS7003;66382;52.252;8.780;2023-03-20T01:02:41;29.75;29.75;16.75
77320;PMS7003;66382;52.252;8.780;2023-03-20T01:05:07;24.25;24.00;15.75
77320;PMS7003;66382;52.252;8.780;2023-03-20T01:07:33;26.75;26.75;15.50
77320;PMS7003;66382;52.252;8.780;2023-03-20T01:09:58;28.75;28.75;17.50
77320;PMS7003;66382;52.252;8.780;2023-03-20T01:12:24;25.50;25.50;16.75
77320;PMS7003;66382;52.252;8.780;2023-03-20T01:14:50;25.25;25.25;16.25
77320;PMS7003;66382;52.252;8.780;2023-03-20T01:17:20;26.75;25.75;16.75
77320;PMS7003;66382;52.252;8.780;2023-03-20T01:19:47;32.25;29.25;19.75
77320;PMS7003;66382;52.252;8.780;2023-03-20T01:22:13;29.25;26.75;17.50
77320;PMS7003;66382;52.252;8.780;2023-03-20T01:24:39;32.50;32.00;16.25
77320;PMS7003;66382;52.252;8.780;2023-03-20T01:27:07;32.25;31.00;17.75
77320;PMS7003;66382;52.252;8.780;2023-03-20T01:29:37;23.00;22.25;9.25
77320;PMS7003;66382;52.252;8.780;2023-03-20T01:32:04;25.25;25.25;17.00
77320;PMS7003;66382;52.252;8.780;2023-03-20T01:34:37;28.25;27.75;17.25
77320;PMS7003;66382;52.252;8.780;2023-03-20T01:37:07;26.00;25.75;15.25
77320;PMS7003;66382;52.252;8.780;2023-03-20T01:39:36;25.25;25.25;16.00
77320;PMS7003;66382;52.252;8.780;2023-03-20T01:42:02;28.50;27.50;16.00
77320;PMS7003;66382;52.252;8.780;2023-03-20T01:44:30;27.00;26.50;17.75
77320;PMS7003;66382;52.252;8.780;2023-03-20T01:46:58;26.00;26.00;17.25
77320;PMS7003;66382;52.252;8.780;2023-03-20T01:52:30;25.50;25.00;18.00
77320;PMS7003;66382;52.252;8.780;2023-03-20T01:54:56;29.75;29.75;18.25
77320;PMS7003;66382;52.252;8.780;2023-03-20T01:57:21;28.00;28.00;14.75
77320;PMS7003;66382;52.252;8.780;2023-03-20T01:59:50;31.00;30.75;17.00
77320;PMS7003;66382;52.252;8.780;2023-03-20T02:02:21;26.75;26.75;18.25
77320;PMS7003;66382;52.252;8.780;2023-03-20T02:04:49;28.00;27.25;19.00
77320;PMS7003;66382;52.252;8.780;2023-03-20T02:07:20;34.75;31.75;19.00
77320;PMS7003;66382;52.252;8.780;2023-03-20T02:09:50;35.50;33.25;19.50
77320;PMS7003;66382;52.252;8.780;2023-03-20T02:12:16;37.75;34.75;21.00
77320;PMS7003;66382;52.252;8.780;2023-03-20T02:14:44;34.00;33.00;21.00
77320;PMS7003;66382;52.252;8.780;2023-03-20T02:17:11;35.00;33.75;19.50
77320;PMS7003;66382;52.252;8.780;2023-03-20T02:19:39;30.25;30.25;20.75
77320;PMS7003;66382;52.252;8.780;2023-03-20T02:22:21;32.00;28.75;18.25
77320;PMS7003;66382;52.252;8.780;2023-03-20T02:25:09;32.25;30.75;18.75
77320;PMS7003;66382;52.252;8.780;2023-03-20T02:28:18;33.00;32.00;20.50
77320;PMS7003;66382;52.252;8.780;2023-03-20T02:31:10;34.00;32.00;20.00
77320;PMS7003;66382;52.252;8.780;2023-03-20T02:36:52;33.75;32.75;21.00
77320;PMS7003;66382;52.252;8.780;2023-03-20T02:39:42;38.75;35.50;23.00
77320;PMS7003;66382;52.252;8.780;2023-03-20T02:42:17;36.75;34.50;20.75
77320;PMS7003;66382;52.252;8.780;2023-03-20T02:44:51;31.25;31.00;17.00
77320;PMS7003;66382;52.252;8.780;2023-03-20T02:47:25;36.25;33.50;21.00
77320;PMS7003;66382;52.252;8.780;2023-03-20T02:49:56;31.50;31.25;19.25
77320;PMS7003;66382;52.252;8.780;2023-03-20T02:52:39;33.50;32.50;20.75
77320;PMS7003;66382;52.252;8.780;2023-03-20T02:55:13;28.00;28.00;16.00
77320;PMS7003;66382;52.252;8.780;2023-03-20T02:57:44;35.00;33.50;19.75
77320;PMS7003;66382;52.252;8.780;2023-03-20T03:00:18;31.75;30.50;20.50
77320;PMS7003;66382;52.252;8.780;2023-03-20T03:02:51;34.50;33.50;21.00
77320;PMS7003;66382;52.252;8.780;2023-03-20T03:05:24;34.50;33.25;22.75
77320;PMS7003;66382;52.252;8.780;2023-03-20T03:07:57;36.25;34.00;21.75
77320;PMS7003;66382;52.252;8.780;2023-03-20T03:10:27;35.25;33.00;21.00
77320;PMS7003;66382;52.252;8.780;2023-03-20T03:12:56;31.25;30.75;20.75
77320;PMS7003;66382;52.252;8.780;2023-03-20T03:15:26;38.50;34.50;21.00
77320;PMS7003;66382;52.252;8.780;2023-03-20T03:17:56;32.75;32.00;19.75
77320;PMS7003;66382;52.252;8.780;2023-03-20T03:20:24;35.25;33.00;21.00
77320;PMS7003;66382;52.252;8.780;2023-03-20T03:22:54;35.75;33.00;19.50
77320;PMS7003;66382;52.252;8.780;2023-03-20T03:25:22;36.50;33.25;22.50
77320;PMS7003;66382;52.252;8.780;2023-03-20T03:27:53;35.25;32.25;18.75
77320;PMS7003;66382;52.252;8.780;2023-03-20T03:30:24;35.00;32.50;21.50
77320;PMS7003;66382;52.252;8.780;2023-03-20T03:32:59;37.50;32.25;20.75
77320;PMS7003;66382;52.252;8.780;2023-03-20T03:35:34;38.75;35.00;21.00
77320;PMS7003;66382;52.252;8.780;2023-03-20T03:38:00;33.75;32.75;21.00
77320;PMS7003;66382;52.252;8.780;2023-03-20T03:40:34;41.25;37.00;21.75
77320;PMS7003;66382;52.252;8.780;2023-03-20T03:43:09;38.75;34.75;21.00
77320;PMS7003;66382;52.252;8.780;2023-03-20T03:45:42;34.25;33.00;21.00
77320;PMS7003;66382;52.252;8.780;2023-03-20T03:48:13;33.50;31.25;21.00
77320;PMS7003;66382;52.252;8.780;2023-03-20T03:50:44;36.75;33.75;21.00
77320;PMS7003;66382;52.252;8.780;2023-03-20T03:53:14;34.00;32.75;21.50
77320;PMS7003;66382;52.252;8.780;2023-03-20T03:55:46;36.50;34.00;20.00
77320;PMS7003;66382;52.252;8.780;2023-03-20T03:58:17;39.75;35.75;21.00
77320;PMS7003;66382;52.252;8.780;2023-03-20T04:00:46;37.50;32.00;21.25
77320;PMS7003;66382;52.252;8.780;2023-03-20T04:03:13;37.75;34.50;22.50
77320;PMS7003;66382;52.252;8.780;2023-03-20T04:05:40;36.00;33.75;21.00
77320;PMS7003;66382;52.252;8.780;2023-03-20T04:08:09;39.00;35.75;21.00
77320;PMS7003;66382;52.252;8.780;2023-03-20T04:10:35;40.25;36.25;22.75
77320;PMS7003;66382;52.252;8.780;2023-03-20T04:13:02;35.00;33.25;21.25
77320;PMS7003;66382;52.252;8.780;2023-03-20T04:15:27;37.25;34.25;20.50
77320;PMS7003;66382;52.252;8.780;2023-03-20T04:17:53;41.25;37.00;23.50
77320;PMS7003;66382;52.252;8.780;2023-03-20T04:20:19;36.50;34.50;21.00
77320;PMS7003;66382;52.252;8.780;2023-03-20T04:22:44;41.00;36.00;23.00
77320;PMS7003;66382;52.252;8.780;2023-03-20T04:25:14;38.00;34.50;23.00
77320;PMS7003;66382;52.252;8.780;2023-03-20T04:27:41;37.00;33.50;21.75
77320;PMS7003;66382;52.252;8.780;2023-03-20T04:30:10;35.50;32.25;20.00
77320;PMS7003;66382;52.252;8.780;2023-03-20T04:32:36;42.50;37.00;22.25
77320;PMS7003;66382;52.252;8.780;2023-03-20T04:35:02;44.50;38.00;21.75
77320;PMS7003;66382;52.252;8.780;2023-03-20T04:37:28;39.00;36.25;23.00
77320;PMS7003;66382;52.252;8.780;2023-03-20T04:39:53;45.25;38.00;22.50
77320;PMS7003;66382;52.252;8.780;2023-03-20T04:42:19;47.50;41.00;24.00
77320;PMS7003;66382;52.252;8.780;2023-03-20T04:44:45;39.25;35.75;22.50
77320;PMS7003;66382;52.252;8.780;2023-03-20T04:47:12;43.50;38.00;24.00
77320;PMS7003;66382;52.252;8.780;2023-03-20T04:49:38;38.75;35.75;21.25
77320;PMS7003;66382;52.252;8.780;2023-03-20T04:52:03;43.50;37.50;23.00
77320;PMS7003;66382;52.252;8.780;2023-03-20T04:54:29;42.50;37.50;23.00
77320;PMS7003;66382;52.252;8.780;2023-03-20T04:56:55;41.25;37.00;23.75
77320;PMS7003;66382;52.252;8.780;2023-03-20T04:59:20;46.75;38.50;23.50
77320;PMS7003;66382;52.252;8.780;2023-03-20T05:01:46;44.50;37.75;23.50
77320;PMS7003;66382;52.252;8.780;2023-03-20T05:04:13;37.75;35.00;23.25
77320;PMS7003;66382;52.252;8.780;2023-03-20T05:06:39;41.00;36.00;21.50
77320;PMS7003;66382;52.252;8.780;2023-03-20T05:09:05;42.00;37.00;23.75
77320;PMS7003;66382;52.252;8.780;2023-03-20T05:11:30;44.50;38.25;23.00
77320;PMS7003;66382;52.252;8.780;2023-03-20T05:13:56;41.25;35.50;21.25
77320;PMS7003;66382;52.252;8.780;2023-03-20T05:16:22;45.50;39.00;23.00
77320;PMS7003;66382;52.252;8.780;2023-03-20T05:18:48;43.75;36.50;22.00
77320;PMS7003;66382;52.252;8.780;2023-03-20T05:21:15;39.00;35.50;21.25
77320;PMS7003;66382;52.252;8.780;2023-03-20T05:23:40;41.75;37.50;23.00
77320;PMS7003;66382;52.252;8.780;2023-03-20T05:26:06;38.25;35.00;19.75
77320;PMS7003;66382;52.252;8.780;2023-03-20T05:28:32;38.25;35.25;22.00
77320;PMS7003;66382;52.252;8.780;2023-03-20T05:30:57;39.75;35.50;22.50
77320;PMS7003;66382;52.252;8.780;2023-03-20T05:33:23;39.50;35.75;21.00
77320;PMS7003;66382;52.252;8.780;2023-03-20T05:35:49;35.25;33.25;19.00
77320;PMS7003;66382;52.252;8.780;2023-03-20T05:38:16;35.50;33.75;21.00
77320;PMS7003;66382;52.252;8.780;2023-03-20T05:40:41;42.00;36.75;21.50
77320;PMS7003;66382;52.252;8.780;2023-03-20T05:43:07;38.00;34.75;21.25
77320;PMS7003;66382;52.252;8.780;2023-03-20T05:45:33;38.50;35.75;22.00
77320;PMS7003;66382;52.252;8.780;2023-03-20T05:47:59;34.00;32.00;21.00
77320;PMS7003;66382;52.252;8.780;2023-03-20T05:50:24;34.75;33.75;20.25
77320;PMS7003;66382;52.252;8.780;2023-03-20T05:52:50;33.50;32.00;20.00
77320;PMS7003;66382;52.252;8.780;2023-03-20T05:55:17;32.00;31.25;19.50
77320;PMS7003;66382;52.252;8.780;2023-03-20T05:57:43;38.75;34.50;21.00
77320;PMS7003;66382;52.252;8.780;2023-03-20T06:00:09;29.25;28.75;19.75
77320;PMS7003;66382;52.252;8.780;2023-03-20T06:02:36;36.50;33.25;19.50
77320;PMS7003;66382;52.252;8.780;2023-03-20T06:05:02;33.50;31.50;17.75
77320;PMS7003;66382;52.252;8.780;2023-03-20T06:07:28;31.50;31.00;20.50
77320;PMS7003;66382;52.252;8.780;2023-03-20T06:09:53;35.25;33.25;20.00
77320;PMS7003;66382;52.252;8.780;2023-03-20T06:12:20;35.25;33.25;21.50
77320;PMS7003;66382;52.252;8.780;2023-03-20T06:14:46;35.25;33.50;20.00
77320;PMS7003;66382;52.252;8.780;2023-03-20T06:17:12;35.00;33.75;20.25
77320;PMS7003;66382;52.252;8.780;2023-03-20T06:19:38;29.75;28.00;19.00
77320;PMS7003;66382;52.252;8.780;2023-03-20T06:22:04;31.75;30.75;18.25
77320;PMS7003;66382;52.252;8.780;2023-03-20T06:24:30;30.25;28.75;16.75
77320;PMS7003;66382;52.252;8.780;2023-03-20T06:26:55;39.25;35.50;21.00
77320;PMS7003;66382;52.252;8.780;2023-03-20T06:29:22;37.75;35.25;20.00
77320;PMS7003;66382;52.252;8.780;2023-03-20T06:31:48;29.50;29.50;20.75
77320;PMS7003;66382;52.252;8.780;2023-03-20T06:34:14;30.50;29.25;19.50
77320;PMS7003;66382;52.252;8.780;2023-03-20T06:36:40;40.25;36.50;22.75
77320;PMS7003;66382;52.252;8.780;2023-03-20T06:39:05;44.75;39.00;23.75
77320;PMS7003;66382;52.252;8.780;2023-03-20T06:41:31;28.25;28.25;17.75
77320;PMS7003;66382;52.252;8.780;2023-03-20T06:43:58;49.25;40.25;24.25
77320;PMS7003;66382;52.252;8.780;2023-03-20T06:46:25;34.50;32.75;19.00
77320;PMS7003;66382;52.252;8.780;2023-03-20T06:48:50;26.75;26.75;16.50
77320;PMS7003;66382;52.252;8.780;2023-03-20T06:51:16;27.00;26.00;15.25
77320;PMS7003;66382;52.252;8.780;2023-03-20T06:53:42;31.75;31.00;19.25
77320;PMS7003;66382;52.252;8.780;2023-03-20T06:56:08;30.25;30.00;18.75
77320;PMS7003;66382;52.252;8.780;2023-03-20T06:58:34;29.25;28.50;18.50
77320;PMS7003;66382;52.252;8.780;2023-03-20T07:01:00;27.00;27.00;17.75
77320;PMS7003;66382;52.252;8.780;2023-03-20T07:03:27;28.50;28.50;17.00
77320;PMS7003;66382;52.252;8.780;2023-03-20T07:05:53;31.50;30.75;19.50
77320;PMS7003;66382;52.252;8.780;2023-03-20T07:08:18;32.00;31.00;19.50
77320;PMS7003;66382;52.252;8.780;2023-03-20T07:10:44;32.00;31.25;21.25
77320;PMS7003;66382;52.252;8.780;2023-03-20T07:13:10;32.00;31.25;19.25
77320;PMS7003;66382;52.252;8.780;2023-03-20T07:15:36;32.50;31.50;21.00
77320;PMS7003;66382;52.252;8.780;2023-03-20T07:18:01;31.75;31.25;18.25
77320;PMS7003;66382;52.252;8.780;2023-03-20T07:20:28;25.50;25.50;16.25
77320;PMS7003;66382;52.252;8.780;2023-03-20T07:22:54;30.00;28.75;19.00
77320;PMS7003;66382;52.252;8.780;2023-03-20T07:25:20;25.75;25.75;16.25
77320;PMS7003;66382;52.252;8.780;2023-03-20T07:27:45;30.75;29.25;18.25
77320;PMS7003;66382;52.252;8.780;2023-03-20T07:30:11;23.25;23.25;11.75
77320;PMS7003;66382;52.252;8.780;2023-03-20T07:32:38;25.25;25.25;15.50
77320;PMS7003;66382;52.252;8.780;2023-03-20T07:35:04;37.75;34.75;24.00
77320;PMS7003;66382;52.252;8.780;2023-03-20T07:37:31;33.50;32.25;21.00
77320;PMS7003;66382;52.252;8.780;2023-03-20T07:39:57;28.00;27.75;17.75
77320;PMS7003;66382;52.252;8.780;2023-03-20T07:42:23;25.00;25.00;14.25
77320;PMS7003;66382;52.252;8.780;2023-03-20T07:44:49;25.75;25.75;15.75
77320;PMS7003;66382;52.252;8.780;2023-03-20T07:47:14;30.75;30.25;15.75
77320;PMS7003;66382;52.252;8.780;2023-03-20T07:49:40;26.25;26.25;16.50
77320;PMS7003;66382;52.252;8.780;2023-03-20T07:52:06;21.75;21.75;13.00
77320;PMS7003;66382;52.252;8.780;2023-03-20T07:54:34;28.75;28.75;16.75
77320;PMS7003;66382;52.252;8.780;2023-03-20T07:56:59;29.50;29.50;19.50
77320;PMS7003;66382;52.252;8.780;2023-03-20T07:59:25;25.50;25.00;16.75
77320;PMS7003;66382;52.252;8.780;2023-03-20T08:01:51;29.25;28.00;15.75
77320;PMS7003;66382;52.252;8.780;2023-03-20T08:04:17;29.00;28.00;16.00
77320;PMS7003;66382;52.252;8.780;2023-03-20T08:06:43;24.50;24.50;14.00
77320;PMS7003;66382;52.252;8.780;2023-03-20T08:09:08;27.75;26.50;16.25
77320;PMS7003;66382;52.252;8.780;2023-03-20T08:11:35;19.25;19.25;9.00
77320;PMS7003;66382;52.252;8.780;2023-03-20T08:14:01;25.25;24.75;17.50
77320;PMS7003;66382;52.252;8.780;2023-03-20T08:16:27;27.25;27.25;18.00
77320;PMS7003;66382;52.252;8.780;2023-03-20T08:18:52;25.75;25.75;16.00
77320;PMS7003;66382;52.252;8.780;2023-03-20T08:21:18;29.75;29.75;18.25
77320;PMS7003;66382;52.252;8.780;2023-03-20T08:23:44;23.00;22.50;12.25
77320;PMS7003;66382;52.252;8.780;2023-03-20T08:26:10;22.50;22.50;13.00
77320;PMS7003;66382;52.252;8.780;2023-03-20T08:28:37;19.25;19.25;12.75
77320;PMS7003;66382;52.252;8.780;2023-03-20T08:31:06;16.00;16.00;10.75
77320;PMS7003;66382;52.252;8.780;2023-03-20T08:33:32;17.75;17.75;12.00
77320;PMS7003;66382;52.252;8.780;2023-03-20T08:35:58;16.75;16.75;10.00
77320;PMS7003;66382;52.252;8.780;2023-03-20T08:38:24;16.75;16.75;11.50
77320;PMS7003;66382;52.252;8.780;2023-03-20T08:40:50;18.50;18.50;11.50
77320;PMS7003;66382;52.252;8.780;2023-03-20T08:43:16;13.75;13.75;10.00
77320;PMS7003;66382;52.252;8.780;2023-03-20T08:45:43;14.00;14.00;9.50
77320;PMS7003;66382;52.252;8.780;2023-03-20T08:48:09;13.50;13.50;9.00
77320;PMS7003;66382;52.252;8.780;2023-03-20T08:50:35;11.25;11.25;8.50
77320;PMS7003;66382;52.252;8.780;2023-03-20T08:53:01;11.25;11.25;9.25
77320;PMS7003;66382;52.252;8.780;2023-03-20T08:55:27;12.75;12.75;9.00
77320;PMS7003;66382;52.252;8.780;2023-03-20T08:57:52;13.00;13.00;9.00
77320;PMS7003;66382;52.252;8.780;2023-03-20T09:00:18;12.50;12.50;7.75
77320;PMS7003;66382;52.252;8.780;2023-03-20T09:02:46;10.50;10.50;8.50
77320;PMS7003;66382;52.252;8.780;2023-03-20T09:05:11;11.25;11.25;8.00
77320;PMS7003;66382;52.252;8.780;2023-03-20T09:07:37;12.00;11.25;8.25
77320;PMS7003;66382;52.252;8.780;2023-03-20T09:10:03;12.25;12.25;9.00
77320;PMS7003;66382;52.252;8.780;2023-03-20T09:12:30;10.75;10.75;7.75
77320;PMS7003;66382;52.252;8.780;2023-03-20T09:14:55;14.00;14.00;9.00
77320;PMS7003;66382;52.252;8.780;2023-03-20T09:17:22;11.00;11.00;8.00
77320;PMS7003;66382;52.252;8.780;2023-03-20T09:19:49;12.25;12.00;7.50
77320;PMS7003;66382;52.252;8.780;2023-03-20T09:22:15;13.00;13.00;8.50
77320;PMS7003;66382;52.252;8.780;2023-03-20T09:24:40;13.00;13.00;9.00
77320;PMS7003;66382;52.252;8.780;2023-03-20T09:27:06;11.25;11.25;8.50
77320;PMS7003;66382;52.252;8.780;2023-03-20T09:29:32;10.00;10.00;9.00
77320;PMS7003;66382;52.252;8.780;2023-03-20T09:31:57;9.00;9.00;8.00
77320;PMS7003;66382;52.252;8.780;2023-03-20T09:34:23;10.00;10.00;7.67
77320;PMS7003;66382;52.252;8.780;2023-03-20T09:36:50;11.00;11.00;9.00
77320;PMS7003;66382;52.252;8.780;2023-03-20T09:39:16;12.00;12.00;8.67
77320;PMS7003;66382;52.252;8.780;2023-03-20T09:41:44;13.00;13.00;10.00
77320;PMS7003;66382;52.252;8.780;2023-03-20T09:44:13;12.00;12.00;9.00
77320;PMS7003;66382;52.252;8.780;2023-03-20T09:47:02;11.00;11.00;9.00
77320;PMS7003;66382;52.252;8.780;2023-03-20T09:49:38;11.00;11.00;9.25
77320;PMS7003;66382;52.252;8.780;2023-03-20T09:52:14;11.00;11.00;9.50
77320;PMS7003;66382;52.252;8.780;2023-03-20T09:54:45;12.50;12.50;9.25
77320;PMS7003;66382;52.252;8.780;2023-03-20T09:57:16;13.75;13.75;10.00
77320;PMS7003;66382;52.252;8.780;2023-03-20T09:59:45;12.75;12.75;9.00
77320;PMS7003;66382;52.252;8.780;2023-03-20T10:02:13;12.25;12.25;9.00
77320;PMS7003;66382;52.252;8.780;2023-03-20T10:04:43;14.50;14.50;9.25
77320;PMS7003;66382;52.252;8.780;2023-03-20T10:07:14;12.00;12.00;9.00
77320;PMS7003;66382;52.252;8.780;2023-03-20T10:09:42;13.75;13.75;10.00
77320;PMS7003;66382;52.252;8.780;2023-03-20T10:12:11;12.75;12.75;10.50
77320;PMS7003;66382;52.252;8.780;2023-03-20T10:14:49;17.25;17.25;12.00
77320;PMS7003;66382;52.252;8.780;2023-03-20T10:17:28;15.67;15.67;11.00
77320;PMS7003;66382;52.252;8.780;2023-03-20T10:20:09;18.50;18.00;14.50
77320;PMS7003;66382;52.252;8.780;2023-03-20T10:22:39;18.00;18.00;15.00
77320;PMS7003;66382;52.252;8.780;2023-03-20T10:25:15;26.25;26.25;18.25
77320;PMS7003;66382;52.252;8.780;2023-03-20T10:27:47;17.25;17.25;13.75
77320;PMS7003;66382;52.252;8.780;2023-03-20T10:30:23;24.00;24.00;18.25
77320;PMS7003;66382;52.252;8.780;2023-03-20T10:32:59;17.50;17.50;14.00
77320;PMS7003;66382;52.252;8.780;2023-03-20T10:35:35;18.00;18.00;14.50
77320;PMS7003;66382;52.252;8.780;2023-03-20T10:38:10;15.25;15.25;13.00
77320;PMS7003;66382;52.252;8.780;2023-03-20T10:40:44;21.00;20.25;14.75
77320;PMS7003;66382;52.252;8.780;2023-03-20T10:43:13;18.25;18.25;14.00
77320;PMS7003;66382;52.252;8.780;2023-03-20T10:45:44;14.50;14.50;10.75
77320;PMS7003;66382;52.252;8.780;2023-03-20T10:48:16;18.00;18.00;13.50
77320;PMS7003;66382;52.252;8.780;2023-03-20T10:50:49;19.00;19.00;15.75
77320;PMS7003;66382;52.252;8.780;2023-03-20T10:53:25;16.33;16.33;12.00
77320;PMS7003;66382;52.252;8.780;2023-03-20T10:55:55;17.75;17.75;13.00
77320;PMS7003;66382;52.252;8.780;2023-03-20T10:58:25;18.00;18.00;13.00
77320;PMS7003;66382;52.252;8.780;2023-03-20T11:00:53;21.50;21.50;15.00
77320;PMS7003;66382;52.252;8.780;2023-03-20T11:03:23;19.75;19.75;15.00
77320;PMS7003;66382;52.252;8.780;2023-03-20T11:05:52;19.75;19.25;13.00
77320;PMS7003;66382;52.252;8.780;2023-03-20T11:08:21;16.00;16.00;12.33
77320;PMS7003;66382;52.252;8.780;2023-03-20T11:10:56;18.25;18.25;13.75
77320;PMS7003;66382;52.252;8.780;2023-03-20T11:13:24;19.50;19.50;12.50
77320;PMS7003;66382;52.252;8.780;2023-03-20T11:15:51;16.50;16.50;13.25
77320;PMS7003;66382;52.252;8.780;2023-03-20T11:18:18;10.67;10.67;8.67
77320;PMS7003;66382;52.252;8.780;2023-03-20T11:20:45;14.67;14.67;11.67
77320;PMS7003;66382;52.252;8.780;2023-03-20T11:23:14;14.67;14.67;11.00
77320;PMS7003;66382;52.252;8.780;2023-03-20T11:25:45;14.67;14.67;12.67
77320;PMS7003;66382;52.252;8.780;2023-03-20T11:28:19;11.33;11.33;9.33
77320;PMS7003;66382;52.252;8.780;2023-03-20T11:30:50;13.00;13.00;11.00
77320;PMS7003;66382;52.252;8.780;2023-03-20T11:33:22;18.25;18.25;14.50
77320;PMS7003;66382;52.252;8.780;2023-03-20T11:35:51;10.33;10.33;8.33
77320;PMS7003;66382;52.252;8.780;2023-03-20T11:38:19;18.75;18.75;14.00
77320;PMS7003;66382;52.252;8.780;2023-03-20T11:40:46;9.33;9.33;8.00
77320;PMS7003;66382;52.252;8.780;2023-03-20T11:43:14;11.00;11.00;10.00
77320;PMS7003;66382;52.252;8.780;2023-03-20T11:45:46;8.67;8.67;6.67
77320;PMS7003;66382;52.252;8.780;2023-03-20T11:48:16;7.00;7.00;5.67
77320;PMS7003;66382;52.252;8.780;2023-03-20T11:50:44;8.00;8.00;7.00
77320;PMS7003;66382;52.252;8.780;2023-03-20T11:53:18;7.67;7.67;6.33
77320;PMS7003;66382;52.252;8.780;2023-03-20T11:55:56;5.00;5.00;4.67
77320;PMS7003;66382;52.252;8.780;2023-03-20T11:58:27;8.00;8.00;6.00
77320;PMS7003;66382;52.252;8.780;2023-03-20T12:00:54;7.00;7.00;6.00
77320;PMS7003;66382;52.252;8.780;2023-03-20T12:03:35;8.00;8.00;6.25
77320;PMS7003;66382;52.252;8.780;2023-03-20T12:06:05;8.00;8.00;7.00
77320;PMS7003;66382;52.252;8.780;2023-03-20T12:08:31;7.33;7.33;6.00
77320;PMS7003;66382;52.252;8.780;2023-03-20T12:11:05;8.00;8.00;6.00
77320;PMS7003;66382;52.252;8.780;2023-03-20T12:13:46;8.00;8.00;6.00
77320;PMS7003;66382;52.252;8.780;2023-03-20T12:16:14;8.33;8.33;6.00
77320;PMS7003;66382;52.252;8.780;2023-03-20T12:18:45;7.25;7.25;6.00
77320;PMS7003;66382;52.252;8.780;2023-03-20T12:21:17;8.67;8.67;8.00
77320;PMS7003;66382;52.252;8.780;2023-03-20T12:23:50;8.00;8.00;6.50
77320;PMS7003;66382;52.252;8.780;2023-03-20T12:26:21;8.00;7.50;6.00
77320;PMS7003;66382;52.252;8.780;2023-03-20T12:28:55;7.67;7.67;6.00
77320;PMS7003;66382;52.252;8.780;2023-03-20T12:31:29;8.25;8.25;7.00
77320;PMS7003;66382;52.252;8.780;2023-03-20T12:34:02;6.67;6.67;6.00
77320;PMS7003;66382;52.252;8.780;2023-03-20T12:36:32;7.75;7.75;5.50
77320;PMS7003;66382;52.252;8.780;2023-03-20T12:39:00;6.00;6.00;5.50
77320;PMS7003;66382;52.252;8.780;2023-03-20T12:41:28;7.00;7.00;5.33
77320;PMS7003;66382;52.252;8.780;2023-03-20T12:44:07;6.33;6.33;5.00
77320;PMS7003;66382;52.252;8.780;2023-03-20T12:46:42;8.67;8.67;6.33
77320;PMS7003;66382;52.252;8.780;2023-03-20T12:49:15;7.00;7.00;6.33
77320;PMS7003;66382;52.252;8.780;2023-03-20T12:51:56;9.00;9.00;7.67
77320;PMS7003;66382;52.252;8.780;2023-03-20T12:54:33;6.00;6.00;5.00
77320;PMS7003;66382;52.252;8.780;2023-03-20T12:57:11;8.00;8.00;6.00
77320;PMS7003;66382;52.252;8.780;2023-03-20T12:59:52;8.00;8.00;6.00
77320;PMS7003;66382;52.252;8.780;2023-03-20T13:02:30;6.67;6.67;6.00
77320;PMS7003;66382;52.252;8.780;2023-03-20T13:05:06;7.67;7.67;6.33
77320;PMS7003;66382;52.252;8.780;2023-03-20T13:07:45;8.00;8.00;7.00
77320;PMS7003;66382;52.252;8.780;2023-03-20T13:10:23;9.00;9.00;7.00
77320;PMS7003;66382;52.252;8.780;2023-03-20T13:12:59;8.67;8.67;7.67
77320;PMS7003;66382;52.252;8.780;2023-03-20T13:15:41;8.25;8.25;7.00
77320;PMS7003;66382;52.252;8.780;2023-03-20T13:18:17;8.67;8.67;6.67
77320;PMS7003;66382;52.252;8.780;2023-03-20T13:20:47;7.00;7.00;6.25
77320;PMS7003;66382;52.252;8.780;2023-03-20T13:23:18;7.00;7.00;6.00
77320;PMS7003;66382;52.252;8.780;2023-03-20T13:25:53;7.00;7.00;6.00
77320;PMS7003;66382;52.252;8.780;2023-03-20T13:28:29;7.33;7.33;6.00
77320;PMS7003;66382;52.252;8.780;2023-03-20T13:31:05;6.00;6.00;5.00
77320;PMS7003;66382;52.252;8.780;2023-03-20T13:33:44;5.25;5.25;5.00
77320;PMS7003;66382;52.252;8.780;2023-03-20T13:36:17;7.33;7.33;5.33
77320;PMS7003;66382;52.252;8.780;2023-03-20T13:38:56;7.00;7.00;6.00
77320;PMS7003;66382;52.252;8.780;2023-03-20T13:41:25;7.00;7.00;5.67
77320;PMS7003;66382;52.252;8.780;2023-03-20T13:43:53;6.00;6.00;5.33
77320;PMS7003;66382;52.252;8.780;2023-03-20T13:46:25;6.00;6.00;6.00
77320;PMS7003;66382;52.252;8.780;2023-03-20T13:49:00;6.33;6.33;5.67
77320;PMS7003;66382;52.252;8.780;2023-03-20T13:51:31;5.00;5.00;4.00
77320;PMS7003;66382;52.252;8.780;2023-03-20T13:54:06;6.00;6.00;5.67
77320;PMS7003;66382;52.252;8.780;2023-03-20T13:56:41;6.33;6.33;5.00
77320;PMS7003;66382;52.252;8.780;2023-03-20T14:02:14;5.00;5.00;4.00
77320;PMS7003;66382;52.252;8.780;2023-03-20T14:04:55;8.67;8.67;7.67
77320;PMS7003;66382;52.252;8.780;2023-03-20T14:07:28;8.67;8.67;7.67
77320;PMS7003;66382;52.252;8.780;2023-03-20T14:09:55;7.00;7.00;6.67
77320;PMS7003;66382;52.252;8.780;2023-03-20T14:12:22;9.33;9.33;8.00
77320;PMS7003;66382;52.252;8.780;2023-03-20T14:14:51;13.75;13.00;11.25